Time;durP1;ratioP1;P1;durP2;ratioP2;P2;SDS_P1;SDS_P2;PMS_P1;PMS_P2;Temp;Humidity;BMP_temperature;BMP_pressure;BME280_temperature;BME280_humidity;BME280_pressure;Samples;Min_cycle;Max_cycle;Signal;HPM_P1;HPM_P2
2023/03/11 00:00:58;;;;;;;4.05;0.90;;;10.00;63.70;;;;;;5055466;28;20029;-68
2023/03/11 00:03:24;;;;;;;2.45;1.05;;;10.00;63.90;;;;;;5054894;28;20025;-68
2023/03/11 00:05:51;;;;;;;3.45;1.05;;;10.00;63.80;;;;;;5048096;28;20038;-67
2023/03/11 00:08:20;;;;;;;2.97;0.98;;;10.00;63.80;;;;;;5034911;28;20048;-67
2023/03/11 00:10:49;;;;;;;5.13;1.20;;;10.00;63.60;;;;;;5035381;28;20036;-67
2023/03/11 00:13:15;;;;;;;2.00;0.70;;;10.00;63.60;;;;;;5034962;28;20033;-67
2023/03/11 00:15:43;;;;;;;1.60;0.70;;;10.00;63.60;;;;;;5035096;28;20362;-67
2023/03/11 00:18:09;;;;;;;4.85;0.98;;;10.00;63.90;;;;;;5034916;28;20033;-67
2023/03/11 00:20:37;;;;;;;2.38;0.77;;;10.00;63.80;;;;;;5035112;28;20120;-67
2023/03/11 00:23:05;;;;;;;2.70;0.98;;;10.00;63.70;;;;;;5034819;28;20036;-68
2023/03/11 00:25:32;;;;;;;1.67;0.90;;;10.00;63.50;;;;;;5034899;28;20041;-67
2023/03/11 00:27:58;;;;;;;3.70;1.10;;;10.10;63.40;;;;;;5034709;28;20053;-67
2023/03/11 00:30:24;;;;;;;3.88;0.98;;;10.10;63.60;;;;;;5034107;28;20025;-67
2023/03/11 00:32:52;;;;;;;5.43;1.20;;;10.10;63.40;;;;;;5034927;28;20105;-67
2023/03/11 00:35:22;;;;;;;2.78;1.10;;;10.00;63.60;;;;;;5034019;28;20029;-67
2023/03/11 00:37:48;;;;;;;2.00;0.98;;;10.00;63.70;;;;;;5034346;28;20033;-67
2023/03/11 00:40:18;;;;;;;5.57;1.27;;;10.00;64.00;;;;;;5034366;28;20055;-67
2023/03/11 00:42:44;;;;;;;4.47;1.10;;;10.00;64.70;;;;;;5034338;28;20117;-67
2023/03/11 00:45:10;;;;;;;5.75;1.20;;;9.90;67.20;;;;;;5034106;28;20033;-68
2023/03/11 00:47:36;;;;;;;2.97;1.00;;;9.90;70.60;;;;;;5034655;28;20025;-67
2023/03/11 00:50:02;;;;;;;2.00;0.85;;;9.70;73.30;;;;;;5034372;28;20155;-70
2023/03/11 00:52:28;;;;;;;3.45;1.10;;;9.60;74.40;;;;;;5034338;28;20496;-68
2023/03/11 00:54:54;;;;;;;4.85;1.20;;;9.40;75.60;;;;;;5016721;28;20025;-68
2023/03/11 00:57:20;;;;;;;3.22;1.00;;;9.20;78.10;;;;;;5033742;28;20462;-69
2023/03/11 00:59:46;;;;;;;2.75;0.85;;;8.90;79.90;;;;;;5034481;28;20032;-67
2023/03/11 01:02:11;;;;;;;1.80;0.85;;;8.70;80.00;;;;;;5033806;28;20033;-68
2023/03/11 01:04:37;;;;;;;2.70;1.15;;;8.60;80.60;;;;;;5052913;28;20029;-67
2023/03/11 01:07:03;;;;;;;2.15;0.90;;;8.60;80.80;;;;;;5053982;28;20531;-67
2023/03/11 01:09:28;;;;;;;2.17;0.93;;;8.50;80.50;;;;;;5053405;28;20046;-68
2023/03/11 01:11:54;;;;;;;4.13;0.88;;;8.50;79.50;;;;;;5054308;28;20028;-67
2023/03/11 01:14:20;;;;;;;2.05;0.95;;;8.60;79.90;;;;;;5053680;28;20040;-68
2023/03/11 01:16:46;;;;;;;3.33;0.98;;;8.50;78.50;;;;;;5036052;28;20025;-68
2023/03/11 01:19:12;;;;;;;3.53;1.20;;;8.50;77.50;;;;;;5053558;28;20442;-68
2023/03/11 01:21:37;;;;;;;2.22;1.15;;;8.50;75.70;;;;;;5054031;28;20029;-68
2023/03/11 01:24:03;;;;;;;1.98;0.80;;;8.50;74.90;;;;;;5053812;28;20028;-67
2023/03/11 01:26:29;;;;;;;2.10;0.85;;;8.40;74.80;;;;;;5053273;28;20094;-68
2023/03/11 01:28:54;;;;;;;2.25;0.93;;;8.40;73.80;;;;;;5053565;28;20052;-68
2023/03/11 01:31:20;;;;;;;1.88;0.98;;;8.40;72.60;;;;;;5053239;28;20029;-68
2023/03/11 01:33:46;;;;;;;1.20;0.68;;;8.40;71.70;;;;;;5053701;28;20024;-68
2023/03/11 01:36:11;;;;;;;1.88;0.90;;;8.40;70.80;;;;;;5053147;28;20021;-68
2023/03/11 01:38:37;;;;;;;1.58;0.80;;;8.40;70.10;;;;;;5053230;28;20382;-68
2023/03/11 01:41:04;;;;;;;2.33;0.90;;;8.40;70.10;;;;;;5053179;28;20420;-68
2023/03/11 01:43:45;;;;;;;1.38;0.68;;;8.30;69.70;;;;;;5052985;28;20554;-67
2023/03/11 01:46:41;;;;;;;1.75;0.80;;;8.40;68.50;;;;;;5052936;28;20032;-68
2023/03/11 01:49:11;;;;;;;1.17;0.68;;;8.40;68.00;;;;;;5053707;28;20461;-68
2023/03/11 01:51:41;;;;;;;1.55;0.80;;;8.40;67.60;;;;;;5053453;28;20075;-67
2023/03/11 01:54:29;;;;;;;1.38;0.88;;;8.40;68.00;;;;;;5053392;28;20048;-67
2023/03/11 01:56:55;;;;;;;0.93;0.70;;;8.40;67.50;;;;;;5052636;28;20025;-67
2023/03/11 01:59:30;;;;;;;2.35;0.80;;;8.40;67.20;;;;;;5053123;28;20036;-68
2023/03/11 02:02:07;;;;;;;3.55;0.88;;;8.40;67.80;;;;;;5053215;28;20055;-67
2023/03/11 02:04:34;;;;;;;0.88;0.77;;;8.30;69.30;;;;;;5052564;28;20067;-68
2023/03/11 02:07:01;;;;;;;0.98;0.70;;;8.20;68.10;;;;;;5053049;28;20376;-67
2023/03/11 02:09:27;;;;;;;1.27;0.80;;;8.10;67.80;;;;;;5047383;28;20382;-68
2023/03/11 02:11:53;;;;;;;2.85;0.93;;;8.20;64.60;;;;;;5033097;28;20029;-67
2023/03/11 02:14:19;;;;;;;2.13;0.70;;;8.00;62.20;;;;;;5032610;28;20025;-68
2023/03/11 02:16:45;;;;;;;1.67;0.80;;;7.90;57.10;;;;;;5032797;28;20021;-67
2023/03/11 02:19:43;;;;;;;0.50;0.50;;;7.80;55.80;;;;;;5032877;28;20033;-68
2023/03/11 02:22:10;;;;;;;2.03;0.80;;;7.60;56.40;;;;;;5028406;28;20042;-67
2023/03/11 02:24:59;;;;;;;1.88;0.60;;;7.50;56.50;;;;;;5014818;28;20116;-68
2023/03/11 02:27:27;;;;;;;1.30;0.70;;;7.40;56.50;;;;;;4993572;28;20045;-68
2023/03/11 02:29:55;;;;;;;0.57;0.50;;;7.30;56.60;;;;;;5032493;28;20378;-67
2023/03/11 02:32:21;;;;;;;0.55;0.55;;;7.10;57.10;;;;;;5032414;28;20029;-67
2023/03/11 02:34:47;;;;;;;2.63;0.65;;;7.10;56.70;;;;;;5032562;28;20032;-67
2023/03/11 02:37:15;;;;;;;1.10;0.82;;;7.00;56.70;;;;;;5014593;28;20025;-67
2023/03/11 02:39:44;;;;;;;0.75;0.70;;;6.90;57.10;;;;;;5032375;28;20468;-67
2023/03/11 02:42:26;;;;;;;0.95;0.75;;;6.90;57.20;;;;;;5032620;28;20121;-67
2023/03/11 02:45:01;;;;;;;1.15;0.60;;;6.80;57.40;;;;;;5032735;28;20033;-67
2023/03/11 02:47:27;;;;;;;1.55;0.70;;;6.70;57.10;;;;;;5031934;28;20036;-67
2023/03/11 02:49:55;;;;;;;3.05;0.88;;;6.70;57.10;;;;;;5032923;28;20355;-67
2023/03/11 02:52:21;;;;;;;4.40;0.90;;;6.70;56.60;;;;;;5032125;28;20467;-67
2023/03/11 02:54:47;;;;;;;1.08;0.60;;;6.60;57.40;;;;;;5032687;28;20029;-67
2023/03/11 02:57:12;;;;;;;0.95;0.80;;;6.60;57.40;;;;;;5032589;28;20370;-67
2023/03/11 02:59:38;;;;;;;1.48;0.98;;;6.50;56.20;;;;;;5031859;28;20461;-67
2023/03/11 03:02:04;;;;;;;3.00;0.80;;;6.40;56.00;;;;;;5032425;28;20091;-67
2023/03/11 03:04:30;;;;;;;9.00;1.05;;;6.50;55.60;;;;;;5031828;28;20038;-67
2023/03/11 03:06:55;;;;;;;1.20;0.90;;;6.40;55.50;;;;;;5032340;28;20036;-67
2023/03/11 03:09:21;;;;;;;1.58;0.82;;;6.40;55.90;;;;;;5047483;28;20028;-67
2023/03/11 03:11:47;;;;;;;2.70;1.00;;;6.40;56.10;;;;;;5056336;28;20112;-67
2023/03/11 03:14:12;;;;;;;0.95;0.73;;;6.30;56.40;;;;;;5056120;28;20083;-67
2023/03/11 03:16:38;;;;;;;1.13;0.82;;;6.30;56.70;;;;;;5055381;28;20029;-67
2023/03/11 03:19:04;;;;;;;0.80;0.80;;;6.30;56.80;;;;;;5056439;28;20040;-66
2023/03/11 03:21:29;;;;;;;2.35;0.85;;;6.20;57.20;;;;;;5055530;28;20033;-66
2023/03/11 03:23:55;;;;;;;0.90;0.90;;;6.20;57.30;;;;;;5056117;28;20361;-68
2023/03/11 03:26:21;;;;;;;1.08;0.98;;;6.20;57.70;;;;;;5055528;28;20025;-68
2023/03/11 03:28:46;;;;;;;5.55;0.90;;;6.20;57.70;;;;;;5055778;28;20127;-68
2023/03/11 03:31:13;;;;;;;3.30;0.70;;;6.20;57.90;;;;;;5055672;28;20028;-68
2023/03/11 03:33:39;;;;;;;1.10;0.90;;;6.10;58.20;;;;;;5055618;28;20048;-67
2023/03/11 03:36:11;;;;;;;0.98;0.82;;;6.10;58.20;;;;;;5055753;28;20470;-68
2023/03/11 03:38:36;;;;;;;1.73;1.00;;;6.10;58.20;;;;;;5055337;28;20120;-68
2023/03/11 03:41:02;;;;;;;0.75;0.75;;;6.10;58.70;;;;;;5056107;28;20113;-68
2023/03/11 03:43:28;;;;;;;1.00;0.90;;;6.10;58.10;;;;;;5055112;28;20066;-68
2023/03/11 03:46:03;;;;;;;0.80;0.73;;;6.00;58.30;;;;;;5055309;28;20469;-68
2023/03/11 03:48:28;;;;;;;0.73;0.70;;;6.00;58.50;;;;;;5055387;28;20017;-67
2023/03/11 03:50:55;;;;;;;1.83;1.00;;;6.00;58.70;;;;;;5055770;28;20021;-68
2023/03/11 03:53:20;;;;;;;1.65;0.98;;;6.00;58.40;;;;;;5055002;28;20032;-67
2023/03/11 03:55:46;;;;;;;0.80;0.70;;;6.00;57.50;;;;;;5055313;28;20025;-67
2023/03/11 03:58:12;;;;;;;1.33;0.90;;;5.90;57.50;;;;;;5055521;28;20100;-67
2023/03/11 04:00:38;;;;;;;0.90;0.80;;;5.90;57.60;;;;;;5055005;28;20211;-67
2023/03/11 04:03:04;;;;;;;1.40;0.90;;;5.80;57.40;;;;;;5055133;28;20029;-67
2023/03/11 04:05:30;;;;;;;1.10;0.98;;;5.80;57.50;;;;;;5054702;28;20068;-67
2023/03/11 04:07:56;;;;;;;0.93;0.80;;;5.80;57.00;;;;;;5055266;28;20049;-67
2023/03/11 04:10:22;;;;;;;1.48;0.90;;;5.80;56.80;;;;;;5054865;28;20037;-67
2023/03/11 04:12:47;;;;;;;0.85;0.80;;;5.80;56.90;;;;;;5045131;28;20030;-67
2023/03/11 04:15:13;;;;;;;1.08;0.70;;;5.80;56.50;;;;;;5035274;28;20022;-67
2023/03/11 04:17:39;;;;;;;0.88;0.70;;;5.70;56.30;;;;;;5034851;28;20021;-67
2023/03/11 04:20:07;;;;;;;1.85;0.70;;;5.70;55.60;;;;;;5034567;28;20358;-67
2023/03/11 04:22:33;;;;;;;1.80;0.82;;;5.50;55.40;;;;;;5034290;28;20116;-67
2023/03/11 04:24:59;;;;;;;2.60;0.60;;;5.40;55.50;;;;;;5035048;28;20060;-67
2023/03/11 04:27:25;;;;;;;0.90;0.60;;;5.30;55.40;;;;;;5034497;28;20470;-67
2023/03/11 04:29:50;;;;;;;0.68;0.68;;;5.30;55.80;;;;;;5034991;28;20033;-67
2023/03/11 04:32:16;;;;;;;1.05;0.70;;;5.30;55.30;;;;;;5034926;28;20461;-67
2023/03/11 04:34:42;;;;;;;0.80;0.70;;;5.30;55.30;;;;;;5034261;28;20059;-67
2023/03/11 04:37:07;;;;;;;0.85;0.73;;;5.30;54.60;;;;;;5034694;28;20071;-67
2023/03/11 04:39:33;;;;;;;0.63;0.55;;;5.20;54.30;;;;;;5034639;28;20057;-66
2023/03/11 04:41:59;;;;;;;1.25;0.80;;;5.20;54.00;;;;;;5034686;28;20485;-67
2023/03/11 04:44:25;;;;;;;0.68;0.60;;;5.20;53.90;;;;;;5034751;28;20064;-66
2023/03/11 04:46:51;;;;;;;1.70;0.65;;;5.10;54.00;;;;;;5034441;28;20057;-67
2023/03/11 04:49:16;;;;;;;1.00;0.68;;;5.00;53.70;;;;;;5034696;28;20072;-67
2023/03/11 04:51:42;;;;;;;0.80;0.60;;;5.10;53.30;;;;;;5033824;28;20032;-67
2023/03/11 04:54:08;;;;;;;1.00;0.80;;;5.00;53.20;;;;;;5034697;28;20035;-67
2023/03/11 04:56:34;;;;;;;0.57;0.55;;;5.00;53.20;;;;;;5034083;28;20100;-67
2023/03/11 04:59:00;;;;;;;0.80;0.65;;;5.00;53.50;;;;;;5034227;28;20492;-67
2023/03/11 05:01:26;;;;;;;1.13;0.68;;;5.00;52.90;;;;;;5033969;28;20025;-68
2023/03/11 05:03:52;;;;;;;1.27;0.60;;;4.90;52.70;;;;;;5034267;28;20032;-67
2023/03/11 05:06:17;;;;;;;1.25;0.77;;;4.90;53.20;;;;;;5034005;28;20025;-67
2023/03/11 05:08:43;;;;;;;2.25;0.95;;;4.80;53.30;;;;;;5033859;28;20026;-67
2023/03/11 05:11:09;;;;;;;1.08;0.60;;;4.80;53.20;;;;;;5034216;28;20489;-67
2023/03/11 05:13:35;;;;;;;1.88;0.82;;;4.80;53.60;;;;;;5045326;28;20033;-67
2023/03/11 05:16:00;;;;;;;1.08;0.70;;;4.80;53.60;;;;;;5054069;28;20025;-67
2023/03/11 05:18:26;;;;;;;1.35;0.70;;;4.80;53.60;;;;;;5053570;28;20024;-68
2023/03/11 05:20:52;;;;;;;2.78;0.80;;;4.70;53.80;;;;;;5053917;28;20025;-67
2023/03/11 05:23:18;;;;;;;1.20;0.93;;;4.60;54.10;;;;;;5053776;28;20032;-67
2023/03/11 05:25:43;;;;;;;1.17;0.60;;;4.60;54.60;;;;;;5053034;28;20033;-67
2023/03/11 05:28:10;;;;;;;1.08;0.68;;;4.60;54.50;;;;;;5053763;28;20108;-67
2023/03/11 05:30:35;;;;;;;1.00;0.80;;;4.60;54.40;;;;;;5053264;28;20060;-67
2023/03/11 05:33:01;;;;;;;0.88;0.70;;;4.60;54.60;;;;;;5052293;28;20056;-67
2023/03/11 05:35:27;;;;;;;1.02;0.60;;;4.60;54.50;;;;;;5053366;28;20032;-67
2023/03/11 05:37:53;;;;;;;1.92;0.80;;;4.60;55.30;;;;;;5053432;28;20075;-67
2023/03/11 05:40:20;;;;;;;0.90;0.60;;;4.50;54.50;;;;;;5053588;28;20021;-67
2023/03/11 05:42:46;;;;;;;0.75;0.75;;;4.50;54.40;;;;;;5053101;28;20031;-67
2023/03/11 05:45:12;;;;;;;0.63;0.60;;;4.60;54.20;;;;;;5053253;28;20029;-68
2023/03/11 05:47:37;;;;;;;1.10;0.70;;;4.70;54.00;;;;;;5053042;28;20404;-67
2023/03/11 05:50:04;;;;;;;0.75;0.70;;;4.70;54.70;;;;;;5053546;28;20468;-67
2023/03/11 05:52:31;;;;;;;0.70;0.70;;;4.70;53.90;;;;;;5052941;28;20119;-68
2023/03/11 05:54:57;;;;;;;1.38;0.80;;;4.70;53.70;;;;;;5053401;28;20082;-66
2023/03/11 05:57:23;;;;;;;2.88;0.90;;;4.70;53.60;;;;;;5052968;28;20029;-67
2023/03/11 05:59:49;;;;;;;4.68;0.82;;;4.70;53.80;;;;;;5052752;28;20053;-67
2023/03/11 06:02:14;;;;;;;1.33;0.90;;;4.80;53.50;;;;;;5053487;28;20037;-66
2023/03/11 06:04:40;;;;;;;2.40;0.80;;;4.70;53.60;;;;;;5051059;28;20393;-67
2023/03/11 06:07:06;;;;;;;1.75;0.60;;;4.80;53.80;;;;;;5053056;28;20098;-68
2023/03/11 06:09:34;;;;;;;1.15;0.80;;;4.70;53.80;;;;;;5052741;28;20044;-67
2023/03/11 06:12:00;;;;;;;0.90;0.60;;;4.80;54.10;;;;;;5052943;28;20037;-67
2023/03/11 06:14:30;;;;;;;0.90;0.77;;;4.80;54.30;;;;;;5053067;28;20375;-68
2023/03/11 06:16:56;;;;;;;1.33;0.70;;;4.90;54.40;;;;;;5052923;28;20021;-68
2023/03/11 06:19:22;;;;;;;1.08;0.80;;;4.80;54.20;;;;;;5052993;28;20056;-68
2023/03/11 06:21:47;;;;;;;3.90;0.93;;;4.90;54.60;;;;;;5052460;28;20060;-68
2023/03/11 06:24:13;;;;;;;0.70;0.70;;;4.90;54.30;;;;;;5052863;28;20418;-68
2023/03/11 06:26:39;;;;;;;2.22;0.98;;;4.90;54.80;;;;;;5051938;28;20037;-68
2023/03/11 06:29:10;;;;;;;1.60;0.82;;;4.90;54.80;;;;;;5053102;28;20032;-68
2023/03/11 06:31:36;;;;;;;0.93;0.80;;;4.90;54.70;;;;;;5051731;28;20025;-68
2023/03/11 06:34:01;;;;;;;1.50;0.90;;;5.00;54.90;;;;;;5052754;28;20029;-68
2023/03/11 06:36:27;;;;;;;1.08;0.70;;;5.00;54.90;;;;;;5052537;28;20033;-68
2023/03/11 06:38:53;;;;;;;1.00;0.60;;;5.00;55.10;;;;;;5052250;28;20103;-68
2023/03/11 06:41:19;;;;;;;1.27;0.77;;;5.00;55.10;;;;;;5052880;28;20033;-67
2023/03/11 06:43:45;;;;;;;1.30;0.93;;;5.00;54.50;;;;;;5051665;28;20071;-67
2023/03/11 06:46:15;;;;;;;2.55;1.02;;;5.00;54.10;;;;;;5052635;28;20480;-67
2023/03/11 06:48:41;;;;;;;0.70;0.70;;;5.00;54.30;;;;;;5052139;28;20029;-67
2023/03/11 06:51:06;;;;;;;2.40;1.00;;;5.10;54.50;;;;;;5052196;28;20029;-67
2023/03/11 06:53:32;;;;;;;2.13;1.10;;;5.10;54.50;;;;;;5052193;28;20024;-67
2023/03/11 06:56:07;;;;;;;5.43;1.08;;;5.10;54.10;;;;;;5052541;28;20025;-67
2023/03/11 06:58:35;;;;;;;3.65;0.90;;;5.10;54.40;;;;;;5052370;28;20078;-66
2023/03/11 07:01:09;;;;;;;2.67;0.73;;;5.10;54.20;;;;;;5052570;28;20112;-67
2023/03/11 07:03:35;;;;;;;1.80;1.00;;;5.20;54.60;;;;;;5050379;28;20040;-67
2023/03/11 07:06:01;;;;;;;4.40;0.90;;;5.20;54.10;;;;;;5034395;28;20037;-67
2023/03/11 07:08:27;;;;;;;3.33;1.00;;;5.20;53.70;;;;;;5051608;28;20032;-67
2023/03/11 07:11:03;;;;;;;6.00;1.05;;;5.20;54.50;;;;;;5051866;28;20035;-67
2023/03/11 07:13:29;;;;;;;1.65;0.93;;;5.30;54.90;;;;;;5051897;28;20033;-67
2023/03/11 07:16:01;;;;;;;0.95;0.90;;;5.20;54.80;;;;;;5051924;28;20033;-66
2023/03/11 07:18:27;;;;;;;1.02;0.75;;;5.30;54.60;;;;;;5052263;28;20029;-67
2023/03/11 07:20:52;;;;;;;1.00;0.60;;;5.30;54.60;;;;;;5051450;28;20029;-67
2023/03/11 07:23:18;;;;;;;4.10;1.20;;;5.40;54.40;;;;;;5052155;28;20060;-66
2023/03/11 07:25:47;;;;;;;0.73;0.70;;;5.50;53.80;;;;;;5051268;28;20025;-66
2023/03/11 07:28:13;;;;;;;2.40;1.00;;;5.60;53.70;;;;;;5051888;28;20496;-66
2023/03/11 07:30:38;;;;;;;0.80;0.80;;;5.70;53.50;;;;;;5051859;28;20029;-66
2023/03/11 07:33:04;;;;;;;1.95;0.98;;;5.90;53.70;;;;;;5051999;28;20437;-66
2023/03/11 07:35:30;;;;;;;1.52;0.68;;;6.00;53.00;;;;;;5051831;28;20024;-67
2023/03/11 07:37:56;;;;;;;3.22;0.85;;;6.20;52.30;;;;;;5051476;28;20075;-67
2023/03/11 07:40:21;;;;;;;1.33;1.00;;;6.50;51.90;;;;;;5052433;28;20032;-68
2023/03/11 07:42:47;;;;;;;1.98;0.60;;;6.70;52.00;;;;;;5051529;28;20036;-67
2023/03/11 07:45:13;;;;;;;1.05;0.68;;;7.00;50.70;;;;;;5051840;28;20036;-68
2023/03/11 07:47:38;;;;;;;1.38;0.70;;;7.40;50.30;;;;;;5051061;28;20377;-69
2023/03/11 07:50:04;;;;;;;1.48;0.80;;;7.60;49.10;;;;;;5051683;28;20466;-68
2023/03/11 07:52:31;;;;;;;0.93;0.85;;;7.90;48.00;;;;;;5051706;28;20040;-68
2023/03/11 07:54:57;;;;;;;2.58;0.90;;;8.10;48.50;;;;;;5051957;28;20691;-66
2023/03/11 07:57:23;;;;;;;1.73;0.90;;;8.30;47.80;;;;;;5055426;28;20033;-66
2023/03/11 07:59:49;;;;;;;2.83;0.90;;;8.50;47.10;;;;;;5054710;28;20028;-67
2023/03/11 08:02:14;;;;;;;1.23;0.95;;;8.60;46.30;;;;;;5055202;28;20029;-66
2023/03/11 08:04:40;;;;;;;1.27;0.77;;;8.80;45.80;;;;;;5054837;28;20025;-66
2023/03/11 08:07:06;;;;;;;2.40;0.80;;;9.10;45.80;;;;;;5053318;28;20481;-66
2023/03/11 08:09:33;;;;;;;1.40;0.77;;;9.20;45.10;;;;;;5035348;28;20160;-66
2023/03/11 08:11:59;;;;;;;1.48;1.00;;;9.90;44.90;;;;;;5034951;28;20029;-66
2023/03/11 08:14:25;;;;;;;0.93;0.80;;;10.50;42.70;;;;;;5035090;28;20025;-66
2023/03/11 08:16:51;;;;;;;0.70;0.70;;;10.80;41.90;;;;;;5016888;28;20033;-66
2023/03/11 08:19:16;;;;;;;0.70;0.70;;;11.30;40.30;;;;;;5035102;28;20022;-66
2023/03/11 08:21:42;;;;;;;1.20;0.70;;;11.30;40.40;;;;;;5038423;28;20029;-66
2023/03/11 08:24:11;;;;;;;0.80;0.80;;;11.70;39.70;;;;;;5042662;28;20073;-66
2023/03/11 08:26:37;;;;;;;0.80;0.70;;;11.90;39.00;;;;;;5042827;28;20120;-65
2023/03/11 08:29:03;;;;;;;1.40;0.88;;;12.10;38.80;;;;;;5043577;28;20441;-64
2023/03/11 08:31:31;;;;;;;3.28;1.00;;;11.60;38.70;;;;;;5044340;28;20075;-67
2023/03/11 08:34:00;;;;;;;0.70;0.68;;;10.80;40.60;;;;;;5042465;28;20033;-66
2023/03/11 08:36:26;;;;;;;1.17;0.82;;;10.50;41.50;;;;;;5045105;28;20029;-65
2023/03/11 08:38:52;;;;;;;0.95;0.77;;;10.00;42.60;;;;;;5043362;28;20071;-65
2023/03/11 08:41:18;;;;;;;1.60;1.20;;;9.70;43.20;;;;;;5054484;28;20022;-65
2023/03/11 08:43:43;;;;;;;1.60;0.80;;;9.50;43.90;;;;;;5053362;28;20485;-65
2023/03/11 08:46:16;;;;;;;2.70;0.98;;;9.40;44.40;;;;;;5054508;28;20040;-65
2023/03/11 08:48:42;;;;;;;2.00;0.98;;;9.30;44.20;;;;;;5054026;28;20025;-65
2023/03/11 08:51:11;;;;;;;1.20;0.90;;;9.40;44.10;;;;;;5054403;28;20036;-65
2023/03/11 08:53:37;;;;;;;0.85;0.82;;;9.40;43.70;;;;;;5054315;28;20029;-65
2023/03/11 08:56:03;;;;;;;0.75;0.70;;;9.30;43.90;;;;;;5053933;28;20525;-65
2023/03/11 08:58:29;;;;;;;3.65;0.80;;;9.20;42.30;;;;;;5054288;28;20029;-65
2023/03/11 09:00:56;;;;;;;0.65;0.65;;;9.00;42.40;;;;;;5053967;28;20025;-66
2023/03/11 09:03:21;;;;;;;2.70;0.68;;;8.80;43.10;;;;;;5053763;28;20526;-66
2023/03/11 09:05:47;;;;;;;2.33;0.70;;;8.90;43.70;;;;;;5053640;28;20123;-65
2023/03/11 09:08:13;;;;;;;4.47;0.90;;;8.80;43.40;;;;;;5054415;28;20127;-65
2023/03/11 09:10:39;;;;;;;0.43;0.43;;;8.90;43.50;;;;;;5053895;28;20404;-65
2023/03/11 09:13:05;;;;;;;2.22;0.60;;;8.80;43.50;;;;;;5054157;28;20025;-65
2023/03/11 09:15:31;;;;;;;0.82;0.63;;;8.90;43.50;;;;;;5053934;28;20461;-65
2023/03/11 09:17:56;;;;;;;1.10;0.60;;;9.00;42.70;;;;;;5053832;28;20033;-66
2023/03/11 09:20:22;;;;;;;6.28;0.98;;;8.70;42.30;;;;;;5054051;28;20025;-66
2023/03/11 09:22:48;;;;;;;0.70;0.70;;;8.40;43.10;;;;;;5053182;28;20091;-66
2023/03/11 09:25:14;;;;;;;0.80;0.60;;;8.40;42.70;;;;;;5053849;28;20041;-66
2023/03/11 09:27:40;;;;;;;0.75;0.50;;;8.30;43.10;;;;;;5053540;28;20044;-65
2023/03/11 09:30:06;;;;;;;1.33;0.70;;;8.00;42.50;;;;;;5053239;28;20037;-66
2023/03/11 09:32:32;;;;;;;0.50;0.50;;;7.80;42.90;;;;;;5053297;28;20028;-65
2023/03/11 09:34:59;;;;;;;1.77;0.73;;;7.60;43.60;;;;;;5053245;28;20025;-65
2023/03/11 09:37:25;;;;;;;2.60;0.80;;;7.50;44.40;;;;;;5053498;28;20475;-66
2023/03/11 09:39:51;;;;;;;1.60;0.70;;;7.40;45.20;;;;;;5053042;28;20045;-65
2023/03/11 09:42:26;;;;;;;0.70;0.57;;;7.40;45.40;;;;;;5052894;28;20040;-65
2023/03/11 09:45:10;;;;;;;1.73;0.60;;;7.30;45.10;;;;;;5052205;28;20036;-65
2023/03/11 09:48:20;;;;;;;0.60;0.60;;;7.30;45.10;;;;;;5053699;28;20029;-65
2023/03/11 09:50:57;;;;;;;1.15;0.85;;;7.40;46.20;;;;;;5014397;28;20477;-66
2023/03/11 09:53:42;;;;;;;1.27;0.70;;;7.40;46.70;;;;;;5053622;28;20033;-66
2023/03/11 09:56:12;;;;;;;1.13;0.60;;;7.20;47.30;;;;;;5052983;28;20453;-66
2023/03/11 09:59:05;;;;;;;1.27;0.60;;;7.20;47.50;;;;;;5053255;28;20048;-65
2023/03/11 10:01:57;;;;;;;0.90;0.50;;;7.20;47.00;;;;;;5054085;28;20499;-65
2023/03/11 10:04:37;;;;;;;0.80;0.60;;;7.00;47.00;;;;;;5049890;28;20037;-66
2023/03/11 10:07:14;;;;;;;1.45;0.73;;;7.00;47.50;;;;;;5053782;28;20116;-66
2023/03/11 10:09:45;;;;;;;0.60;0.50;;;6.90;48.20;;;;;;5054264;28;20477;-66
2023/03/11 10:12:51;;;;;;;1.75;0.50;;;6.80;47.80;;;;;;5055220;28;20025;-66
2023/03/11 10:15:24;;;;;;;0.77;0.60;;;6.90;47.20;;;;;;5055092;28;20481;-66
2023/03/11 10:18:12;;;;;;;0.63;0.50;;;6.90;47.60;;;;;;5017744;28;20121;-66
2023/03/11 10:21:08;;;;;;;6.53;0.75;;;6.90;47.20;;;;;;5033224;28;20021;-66
2023/03/11 10:24:04;;;;;;;5.10;0.77;;;6.90;48.10;;;;;;5033021;28;20036;-65
2023/03/11 10:26:38;;;;;;;0.65;0.65;;;6.90;48.40;;;;;;5032933;28;20041;-65
2023/03/11 10:29:36;;;;;;;1.85;0.70;;;6.90;49.10;;;;;;5032897;28;20049;-65
2023/03/11 10:32:13;;;;;;;1.85;0.63;;;7.10;49.10;;;;;;5014666;28;20069;-66
2023/03/11 10:34:47;;;;;;;0.85;0.80;;;6.90;49.00;;;;;;5032914;28;20026;-66
2023/03/11 10:37:36;;;;;;;1.00;0.60;;;6.70;49.30;;;;;;5032888;28;20529;-66
2023/03/11 10:40:22;;;;;;;1.27;0.57;;;6.70;49.30;;;;;;5032590;28;20128;-65
2023/03/11 10:42:51;;;;;;;3.25;1.10;;;6.60;49.70;;;;;;5032386;28;20033;-65
2023/03/11 10:45:19;;;;;;;0.93;0.70;;;6.50;50.20;;;;;;5032537;28;20116;-65
2023/03/11 10:47:45;;;;;;;2.83;0.73;;;6.30;50.50;;;;;;5032565;28;20021;-65
2023/03/11 10:50:18;;;;;;;2.08;0.75;;;6.30;49.90;;;;;;5031945;28;20477;-65
2023/03/11 10:53:12;;;;;;;1.38;0.80;;;6.30;49.90;;;;;;5032461;28;20038;-65
2023/03/11 10:55:46;;;;;;;0.88;0.70;;;6.30;48.80;;;;;;5032725;28;20029;-65
2023/03/11 10:58:15;;;;;;;1.00;0.60;;;6.20;48.70;;;;;;5032508;28;20021;-66
2023/03/11 11:00:41;;;;;;;0.93;0.63;;;6.20;48.50;;;;;;5032563;28;20052;-65
2023/03/11 11:03:17;;;;;;;0.75;0.70;;;6.20;48.50;;;;;;5032088;28;20025;-65
2023/03/11 11:05:43;;;;;;;0.75;0.50;;;6.30;48.70;;;;;;5032500;28;20030;-65
2023/03/11 11:08:14;;;;;;;1.40;0.63;;;6.20;49.40;;;;;;5032023;28;20212;-65
2023/03/11 11:10:54;;;;;;;;;;;6.30;48.50;;;;;;5032766;28;20044;-65
2023/03/11 11:13:23;;;;;;;0.90;0.80;;;6.50;48.00;;;;;;5052265;28;19963;-65
2023/03/11 11:15:55;;;;;;;0.82;0.70;;;6.60;47.20;;;;;;5052082;28;20060;-66
2023/03/11 11:18:23;;;;;;;0.68;0.68;;;6.80;46.00;;;;;;5052156;28;20036;-66
2023/03/11 11:21:05;;;;;;;0.80;0.70;;;6.90;46.20;;;;;;5052004;28;20025;-68
2023/03/11 11:24:00;;;;;;;1.35;0.80;;;7.10;46.80;;;;;;5052039;28;20112;-66
2023/03/11 11:26:25;;;;;;;1.73;0.70;;;7.20;46.30;;;;;;5052560;28;20469;-65
2023/03/11 11:29:14;;;;;;;1.30;0.80;;;7.40;46.00;;;;;;5051799;28;20036;-65
2023/03/11 11:31:44;;;;;;;1.80;0.85;;;7.50;46.80;;;;;;5055709;28;20037;-65
2023/03/11 11:34:40;;;;;;;2.05;0.98;;;7.70;45.90;;;;;;5055444;28;20049;-66
2023/03/11 11:37:10;;;;;;;1.90;1.00;;;7.60;45.10;;;;;;5034073;28;20048;-65
2023/03/11 11:39:51;;;;;;;1.60;1.00;;;7.60;45.20;;;;;;5055863;28;20049;-66
2023/03/11 11:42:22;;;;;;;1.27;0.70;;;7.60;45.60;;;;;;5055989;28;20021;-67
2023/03/11 11:44:54;;;;;;;0.65;0.63;;;7.50;46.40;;;;;;5056017;28;20033;-65
2023/03/11 11:47:26;;;;;;;1.27;0.85;;;7.50;46.50;;;;;;5056010;28;20063;-65
2023/03/11 11:49:55;;;;;;;0.80;0.70;;;7.50;46.40;;;;;;5055355;28;20092;-67
2023/03/11 11:52:29;;;;;;;1.73;1.08;;;7.50;46.90;;;;;;5052794;28;20027;-65
2023/03/11 11:55:03;;;;;;;0.98;0.90;;;7.40;46.80;;;;;;5044734;28;20080;-65
2023/03/11 11:57:30;;;;;;;1.83;0.70;;;7.10;46.30;;;;;;5043897;28;20061;-65
2023/03/11 11:59:56;;;;;;;1.30;0.77;;;7.10;45.70;;;;;;5041305;28;20092;-66
2023/03/11 12:02:27;;;;;;;2.67;0.80;;;7.00;46.10;;;;;;5043139;28;20026;-64
2023/03/11 12:05:27;;;;;;;3.45;0.80;;;7.00;46.00;;;;;;5043187;28;20025;-65
2023/03/11 12:08:29;;;;;;;1.38;0.77;;;6.90;46.30;;;;;;5043033;28;20108;-69
2023/03/11 12:11:10;;;;;;;2.08;0.80;;;6.90;45.00;;;;;;5044760;28;20030;-66
2023/03/11 12:13:48;;;;;;;1.90;0.90;;;6.80;45.10;;;;;;5027250;28;20040;-66
2023/03/11 12:16:25;;;;;;;1.45;0.80;;;6.90;45.80;;;;;;5044302;28;20124;-64
2023/03/11 12:19:02;;;;;;;1.10;0.80;;;7.00;45.40;;;;;;5044260;28;20109;-66
2023/03/11 12:21:34;;;;;;;1.70;0.80;;;6.90;45.50;;;;;;5043744;28;20022;-66
2023/03/11 12:24:28;;;;;;;0.90;0.70;;;6.80;45.40;;;;;;5042293;28;20025;-66
2023/03/11 12:27:30;;;;;;;0.70;0.70;;;6.80;46.30;;;;;;5044107;28;20059;-66
2023/03/11 12:29:58;;;;;;;;;;;6.80;46.10;;;;;;4992086;28;20039;-65
2023/03/11 12:32:29;;;;;;;1.27;0.70;;;6.80;46.80;;;;;;5045433;28;19928;-65
2023/03/11 12:35:18;;;;;;;1.20;0.90;;;6.80;47.00;;;;;;5042594;28;20031;-66
2023/03/11 12:37:44;;;;;;;0.98;0.73;;;6.80;47.20;;;;;;5042611;28;20079;-65
2023/03/11 12:40:45;;;;;;;1.83;1.33;;;6.70;47.10;;;;;;5037916;28;20461;-65
2023/03/11 12:43:24;;;;;;;1.80;1.02;;;6.70;47.50;;;;;;5034094;28;20029;-64
2023/03/11 12:45:54;;;;;;;1.70;0.80;;;6.60;47.50;;;;;;5039379;28;20060;-66
2023/03/11 12:48:28;;;;;;;0.82;0.80;;;6.70;47.80;;;;;;5043548;28;20025;-66
2023/03/11 12:50:56;;;;;;;4.13;1.20;;;6.70;48.20;;;;;;5041961;28;20458;-68
2023/03/11 12:53:46;;;;;;;0.75;0.70;;;6.60;48.10;;;;;;5043159;28;20040;-66
2023/03/11 12:56:30;;;;;;;0.98;0.80;;;6.50;48.50;;;;;;5043030;28;20480;-66
2023/03/11 12:59:01;;;;;;;0.98;0.80;;;6.50;48.70;;;;;;5041768;28;20032;-66
2023/03/11 13:01:30;;;;;;;2.92;0.90;;;6.50;48.60;;;;;;5042478;28;20021;-66
2023/03/11 13:04:14;;;;;;;1.08;0.75;;;6.50;48.90;;;;;;5041563;28;20034;-66
2023/03/11 13:07:11;;;;;;;0.93;0.63;;;6.50;48.70;;;;;;5045205;28;20064;-64
2023/03/11 13:09:38;;;;;;;1.67;0.95;;;6.60;48.80;;;;;;5040391;28;20049;-65
2023/03/11 13:12:42;;;;;;;0.88;0.88;;;6.60;49.10;;;;;;5043625;28;20083;-66